CheckWX is a tool to help pilots better visualize weather data.  It is not intended as a substitute for an official pre-flight weather briefing.

09:02:31 UTC

KMWC METAR
Lawrence J Timmerman Airport
Milwaukee, Wisconsin, USA
Current

8 mins ago

KMWC 220855Z AUTO 00000KT 5SM BR CLR M11/M13 A3040 RMK AO2
Observed
Feb-22 @ 08:55 UTC
Visibility
5 SM
Flight Rules
MVFR
Conditions
Mist
Cloud Levels
  • Clear skies
Temperature
-11°C / 12°F
Dewpoint
-13°C / 9°F
Humidity
85%
Altimeter
30.4" Hg
Pressure
1029.41 hPa
Previous

28 mins ago

KMWC 220835Z AUTO 00000KT 5SM BR CLR M11/M13 A3040 RMK AO2
Observed
Feb-22 @ 08:35 UTC
Visibility
5 SM
Flight Rules
MVFR
Conditions
Mist
Cloud Levels
  • Clear skies
Temperature
-11°C / 12°F
Dewpoint
-13°C / 9°F
Humidity
85%
Altimeter
30.4" Hg
Pressure
1029.41 hPa
Previous

48 mins ago

KMWC 220815Z AUTO 00000KT 5SM HZ CLR M10/M13 A3039 RMK AO2
Observed
Feb-22 @ 08:15 UTC
Visibility
5 SM
Flight Rules
MVFR
Conditions
Haze
Cloud Levels
  • Clear skies
Temperature
-10°C / 14°F
Dewpoint
-13°C / 9°F
Humidity
79%
Altimeter
30.39" Hg
Pressure
1029.11 hPa